Time;durP1;ratioP1;P1;durP2;ratioP2;P2;SDS_P1;SDS_P2;PMS_P1;PMS_P2;Temp;Humidity;BMP_temperature;BMP_pressure;BME280_temperature;BME280_humidity;BME280_pressure;Samples;Min_cycle;Max_cycle;Signal;HPM_P1;HPM_P2
2022/08/23 00:01:53;;;;;;;0.00;0.00;;;;;;;19.58;66.59;100428.69;4993040;28;20648;-74
2022/08/23 00:04:25;;;;;;;0.00;0.00;;;;;;;19.51;66.28;100422.97;4992770;28;20187;-73
2022/08/23 00:06:52;;;;;;;0.00;0.00;;;;;;;19.42;65.96;100428.00;4992670;28;20174;-73
2022/08/23 00:09:20;;;;;;;0.00;0.00;;;;;;;19.41;66.25;100426.41;4992768;28;20181;-73
2022/08/23 00:12:07;;;;;;;0.00;0.00;;;;;;;19.37;66.56;100419.97;4992903;28;20625;-74
2022/08/23 00:14:35;;;;;;;0.00;0.00;;;;;;;19.32;66.94;100423.06;4992649;28;20872;-73
2022/08/23 00:17:01;;;;;;;0.00;0.00;;;;;;;19.29;67.08;100424.63;4992672;28;20217;-73
2022/08/23 00:19:26;;;;;;;0.00;0.00;;;;;;;19.30;67.37;100423.44;4992763;28;20783;-73
2022/08/23 00:21:54;;;;;;;0.00;0.00;;;;;;;19.26;67.14;100421.81;4991312;28;20186;-74
2022/08/23 00:24:20;;;;;;;0.00;0.00;;;;;;;19.19;66.99;100425.22;4992448;28;20183;-73
2022/08/23 00:27:09;;;;;;;0.00;0.00;;;;;;;19.28;67.30;100423.03;4992517;28;20797;-73
2022/08/23 00:29:50;;;;;;;0.00;0.00;;;;;;;19.30;67.50;100433.72;4992587;28;20175;-74
2022/08/23 00:32:19;;;;;;;0.00;0.00;;;;;;;19.26;67.75;100421.81;4992268;28;20169;-74
2022/08/23 00:34:45;;;;;;;0.00;0.00;;;;;;;19.24;67.40;100424.94;4992271;28;20209;-74
2022/08/23 00:37:11;;;;;;;0.00;0.00;;;;;;;19.20;67.29;100420.50;4991080;28;20668;-73
2022/08/23 00:39:39;;;;;;;0.00;0.00;;;;;;;19.12;67.73;100418.78;4977643;28;20182;-73
2022/08/23 00:47:53;;;;;;;0.00;0.00;;;;;;;18.91;67.62;100422.75;4973092;28;20696;-73
2022/08/23 00:50:25;;;;;;;0.00;0.00;;;;;;;18.91;67.50;100410.91;4972754;28;20187;-74
2022/08/23 00:52:56;;;;;;;4.20;3.90;;;;;;;18.97;67.35;100420.50;4972504;28;20564;-74
2022/08/23 00:55:23;;;;;;;0.00;0.00;;;;;;;18.98;66.55;100414.59;4972473;28;20197;-74
2022/08/23 00:57:50;;;;;;;0.00;0.00;;;;;;;19.06;66.67;100429.34;4972636;28;20179;-73
2022/08/23 01:00:16;;;;;;;0.00;0.00;;;;;;;19.06;66.06;100421.06;4972668;28;20178;-74
2022/08/23 01:02:45;;;;;;;0.00;0.00;;;;;;;19.18;66.20;100420.88;4971284;28;20538;-74
2022/08/23 01:05:11;;;;;;;0.00;0.00;;;;;;;19.23;66.18;100415.00;4972371;28;20253;-73
2022/08/23 01:07:51;;;;;;;0.00;0.00;;;;;;;19.22;65.85;100412.59;4972437;28;20180;-74
2022/08/23 01:10:38;;;;;;;0.00;0.00;;;;;;;19.11;65.93;100425.50;4972702;28;20601;-74
2022/08/23 01:13:14;;;;;;;0.00;0.00;;;;;;;18.53;68.30;100418.09;4972817;28;20704;-73
2022/08/23 01:15:44;;;;;;;0.00;0.00;;;;;;;18.44;69.21;100423.84;4972086;28;20565;-74
2022/08/23 01:18:14;;;;;;;0.00;0.00;;;;;;;18.53;69.34;100417.28;4972264;28;20286;-74
2022/08/23 01:20:48;;;;;;;0.00;0.00;;;;;;;18.60;69.09;100423.75;4971144;28;20188;-73
2022/08/23 01:23:31;;;;;;;0.00;0.00;;;;;;;18.60;69.28;100429.28;4972156;28;20280;-73
2022/08/23 01:25:57;;;;;;;0.00;0.00;;;;;;;18.61;68.93;100424.53;4972498;28;20536;-73
2022/08/23 01:28:23;;;;;;;0.00;0.00;;;;;;;18.56;69.21;100417.34;4972065;28;20176;-74
2022/08/23 01:30:48;;;;;;;0.00;0.00;;;;;;;18.37;69.55;100422.88;4972211;28;20174;-74
2022/08/23 01:33:14;;;;;;;0.00;0.00;;;;;;;17.93;70.67;100419.56;4972092;28;20798;-73
2022/08/23 01:35:47;;;;;;;0.00;0.00;;;;;;;17.80;71.53;100416.97;4971996;28;20192;-73
2022/08/23 01:38:13;;;;;;;0.00;0.00;;;;;;;18.04;71.36;100429.72;4971961;28;20664;-73
2022/08/23 01:40:40;;;;;;;0.00;0.00;;;;;;;18.19;71.09;100424.47;4972215;28;20257;-74
2022/08/23 01:43:06;;;;;;;0.00;0.00;;;;;;;18.22;70.96;100426.50;4972052;28;20814;-74
2022/08/23 01:45:32;;;;;;;0.00;0.00;;;;;;;18.21;70.63;100430.44;4971923;28;20192;-73
2022/08/23 01:47:58;;;;;;;0.00;0.00;;;;;;;18.23;70.60;100426.19;4972014;28;20241;-74
2022/08/23 01:50:25;;;;;;;0.00;0.00;;;;;;;18.20;70.59;100426.09;4972032;28;20166;-74
2022/08/23 01:52:50;;;;;;;0.00;0.00;;;;;;;18.31;70.69;100433.44;4971815;28;20203;-74
2022/08/23 01:55:16;;;;;;;0.00;0.00;;;;;;;18.36;70.39;100429.56;4971766;28;20221;-74
2022/08/23 01:57:44;;;;;;;0.00;0.00;;;;;;;18.01;70.94;100426.88;4971808;28;20177;-74
2022/08/23 02:00:10;;;;;;;0.00;0.00;;;;;;;17.95;71.23;100431.09;4971949;28;20228;-74
2022/08/23 02:02:36;;;;;;;0.00;0.00;;;;;;;18.05;71.73;100430.50;4971914;28;20178;-73
2022/08/23 02:05:04;;;;;;;0.00;0.00;;;;;;;18.07;71.72;100433.72;4971680;28;20212;-73
2022/08/23 02:07:29;;;;;;;0.00;0.00;;;;;;;17.99;71.30;100432.78;4971804;28;20181;-74
2022/08/23 02:09:54;;;;;;;0.00;0.00;;;;;;;17.81;71.88;100437.91;4971860;28;20460;-73
2022/08/23 02:12:20;;;;;;;0.00;0.00;;;;;;;17.44;73.11;100431.88;4971694;28;20266;-74
2022/08/23 02:14:46;;;;;;;0.00;0.00;;;;;;;17.37;74.38;100436.44;4971538;28;20293;-74
2022/08/23 02:17:11;;;;;;;0.00;0.00;;;;;;;17.58;73.53;100436.94;4971640;28;20173;-73
2022/08/23 02:19:37;;;;;;;0.00;0.00;;;;;;;17.50;73.95;100440.66;4971657;28;20174;-74
2022/08/23 02:22:05;;;;;;;0.00;0.00;;;;;;;17.39;73.92;100436.88;4971696;28;20765;-74
2022/08/23 02:24:31;;;;;;;0.00;0.00;;;;;;;17.34;74.16;100437.91;4971511;28;20245;-73
2022/08/23 02:27:00;;;;;;;0.00;0.00;;;;;;;17.37;74.27;100439.19;4971611;28;20641;-74
2022/08/23 02:29:28;;;;;;;0.00;0.00;;;;;;;17.44;74.14;100442.91;4954974;28;20269;-74
2022/08/23 02:31:54;;;;;;;0.00;0.00;;;;;;;17.40;74.17;100444.78;4955764;28;20662;-73
2022/08/23 02:34:20;;;;;;;0.00;0.00;;;;;;;17.46;74.08;100440.59;4955752;28;20280;-73
2022/08/23 02:36:46;;;;;;;0.00;0.00;;;;;;;17.47;74.14;100456.00;4955897;28;20654;-73
2022/08/23 02:39:13;;;;;;;0.00;0.00;;;;;;;17.48;73.90;100445.75;4956157;28;20175;-74
2022/08/23 02:41:38;;;;;;;0.00;0.00;;;;;;;17.45;74.36;100446.47;4954607;29;20178;-74
2022/08/23 02:44:04;;;;;;;0.00;0.00;;;;;;;17.37;74.58;100450.25;4955738;28;20479;-73
2022/08/23 02:46:29;;;;;;;0.00;0.00;;;;;;;17.45;74.52;100452.78;4955557;28;20315;-73
2022/08/23 02:48:55;;;;;;;0.00;0.00;;;;;;;17.14;75.31;100448.09;4955700;28;20654;-73
2022/08/23 02:51:21;;;;;;;0.00;0.00;;;;;;;16.90;76.16;100453.75;4955716;28;20162;-74
2022/08/23 02:53:46;;;;;;;0.00;0.00;;;;;;;17.09;76.38;100450.31;4955375;28;20278;-74
2022/08/23 02:56:12;;;;;;;0.00;0.00;;;;;;;17.28;75.78;100452.38;4955863;28;20226;-74
2022/08/23 02:58:38;;;;;;;0.00;0.00;;;;;;;17.24;75.99;100455.03;4955429;28;20209;-74
2022/08/23 03:01:04;;;;;;;0.00;0.00;;;;;;;17.06;76.28;100457.31;4955420;28;20638;-74
2022/08/23 03:03:30;;;;;;;0.00;0.00;;;;;;;17.03;76.72;100455.28;4955223;28;20193;-74
2022/08/23 03:05:55;;;;;;;0.00;0.00;;;;;;;16.79;77.44;100453.47;4954043;29;20179;-73
2022/08/23 03:08:23;;;;;;;0.00;0.00;;;;;;;16.79;77.85;100461.75;4955303;28;20171;-73
2022/08/23 03:10:51;;;;;;;0.00;0.00;;;;;;;16.64;78.64;100463.28;4955366;28;20198;-73
2022/08/23 03:13:17;;;;;;;0.00;0.00;;;;;;;16.85;78.27;100457.56;4955105;28;20278;-74
2022/08/23 03:15:43;;;;;;;0.00;0.00;;;;;;;16.89;78.31;100452.13;4955061;28;20171;-74
2022/08/23 03:18:09;;;;;;;0.00;0.00;;;;;;;16.81;78.00;100450.38;4955154;28;20190;-74
2022/08/23 03:20:36;;;;;;;0.00;0.00;;;;;;;16.62;78.67;100456.50;4955080;28;20171;-74
2022/08/23 03:23:01;;;;;;;0.00;0.00;;;;;;;16.47;79.96;100454.50;4955076;28;20179;-74
2022/08/23 03:25:27;;;;;;;0.00;0.00;;;;;;;16.46;79.87;100459.22;4954809;28;20325;-73
2022/08/23 03:27:52;;;;;;;0.00;0.00;;;;;;;16.55;80.24;100459.88;4955013;28;20214;-73
2022/08/23 03:30:18;;;;;;;0.00;0.00;;;;;;;16.59;79.68;100460.75;4953616;28;20179;-74
2022/08/23 03:32:43;;;;;;;1.20;1.20;;;;;;;16.45;80.10;100474.16;4954370;28;20273;-73
2022/08/23 03:35:09;;;;;;;0.00;0.00;;;;;;;16.46;80.51;100470.25;4954163;28;20210;-72
2022/08/23 03:37:35;;;;;;;0.00;0.00;;;;;;;16.55;80.49;100465.38;4954247;28;20205;-73
2022/08/23 03:40:00;;;;;;;0.00;0.00;;;;;;;16.49;80.39;100465.97;4954394;28;20262;-73
2022/08/23 03:42:26;;;;;;;0.00;0.00;;;;;;;16.38;81.06;100468.44;4954369;28;20578;-73
2022/08/23 03:44:51;;;;;;;0.00;0.00;;;;;;;16.51;80.86;100471.97;4954099;28;20178;-73
2022/08/23 03:47:17;;;;;;;0.17;0.17;;;;;;;16.68;80.27;100466.19;4954158;28;20214;-74
2022/08/23 03:49:42;;;;;;;0.00;0.00;;;;;;;16.78;80.07;100473.13;4954199;28;20262;-73
2022/08/23 03:52:08;;;;;;;0.00;0.00;;;;;;;16.58;80.01;100467.44;4954212;28;20181;-73
2022/08/23 03:54:33;;;;;;;0.00;0.00;;;;;;;16.57;80.59;100463.06;4970538;28;20256;-74
2022/08/23 03:57:02;;;;;;;0.00;0.00;;;;;;;16.47;80.58;100471.84;4972852;28;20209;-73
2022/08/23 03:59:29;;;;;;;0.00;0.00;;;;;;;16.62;80.50;100468.34;4973038;28;20182;-75
2022/08/23 04:01:54;;;;;;;1.10;1.10;;;;;;;16.71;80.21;100473.75;4973034;28;20182;-74
2022/08/23 04:04:21;;;;;;;0.00;0.00;;;;;;;16.75;79.95;100485.66;4972764;28;20261;-74
2022/08/23 04:06:46;;;;;;;0.00;0.00;;;;;;;16.77;79.36;100477.84;4973032;28;20581;-73
2022/08/23 04:09:13;;;;;;;0.00;0.00;;;;;;;16.80;79.26;100481.88;4973143;28;20184;-74
2022/08/23 04:11:39;;;;;;;0.00;0.00;;;;;;;16.78;79.19;100481.41;4973270;28;20503;-74
2022/08/23 04:14:05;;;;;;;0.00;0.00;;;;;;;16.60;79.64;100478.91;4972510;28;20212;-73
2022/08/23 04:16:36;;;;;;;0.00;0.00;;;;;;;16.41;80.99;100484.28;4972708;28;20225;-74
2022/08/23 04:19:06;;;;;;;0.00;0.00;;;;;;;16.37;81.52;100486.16;4972973;28;20181;-75
2022/08/23 04:21:33;;;;;;;0.97;0.97;;;;;;;16.34;81.75;100486.81;4972890;28;20177;-74
2022/08/23 04:23:59;;;;;;;0.00;0.00;;;;;;;16.06;83.07;100489.56;4972558;28;20232;-74
2022/08/23 04:26:24;;;;;;;0.00;0.00;;;;;;;16.16;83.19;100485.50;4972718;28;20587;-75
2022/08/23 04:28:49;;;;;;;0.00;0.00;;;;;;;16.18;83.27;100491.47;4973007;28;20228;-74
2022/08/23 04:31:17;;;;;;;0.00;0.00;;;;;;;16.15;83.17;100495.72;4972859;28;20205;-74
2022/08/23 04:33:43;;;;;;;0.00;0.00;;;;;;;16.28;82.52;100493.75;4972282;28;20198;-74
2022/08/23 04:36:08;;;;;;;0.00;0.00;;;;;;;16.39;81.75;100507.84;4972662;28;20244;-74
2022/08/23 04:38:34;;;;;;;0.10;0.10;;;;;;;16.26;81.37;100507.06;4972472;28;20197;-74
2022/08/23 04:43:43;;;;;;;0.00;0.00;;;;;;;16.31;81.22;100506.81;4972272;28;20692;-74
2022/08/23 04:46:09;;;;;;;0.00;0.00;;;;;;;16.46;80.42;100511.59;4971160;28;20177;-74
2022/08/23 04:48:34;;;;;;;0.00;0.00;;;;;;;16.42;80.41;100509.91;4972351;28;20177;-74
2022/08/23 04:51:00;;;;;;;0.00;0.00;;;;;;;16.39;80.73;100507.84;4970592;28;20217;-74
2022/08/23 04:53:27;;;;;;;0.00;0.00;;;;;;;16.40;80.42;100523.25;4971872;28;20212;-74
2022/08/23 04:55:54;;;;;;;0.03;0.03;;;;;;;16.41;80.86;100520.13;4972228;28;20602;-74
2022/08/23 04:58:20;;;;;;;0.00;0.00;;;;;;;16.45;80.53;100528.50;4972141;28;20621;-74
2022/08/23 05:00:50;;;;;;;0.00;0.00;;;;;;;16.58;80.66;100533.66;4972261;28;20192;-73
2022/08/23 05:03:15;;;;;;;0.20;0.20;;;;;;;16.58;80.44;100533.66;4972416;28;20649;-74
2022/08/23 05:05:40;;;;;;;1.90;1.80;;;;;;;16.65;80.19;100533.88;4971774;28;20205;-74
2022/08/23 05:08:06;;;;;;;0.00;0.00;;;;;;;16.62;80.03;100536.50;4971874;28;20268;-73
2022/08/23 05:10:32;;;;;;;0.00;0.00;;;;;;;16.68;80.19;100548.94;4972061;28;20181;-74
2022/08/23 05:12:57;;;;;;;0.00;0.00;;;;;;;16.71;79.78;100550.19;4970752;28;20217;-74
2022/08/23 05:15:22;;;;;;;0.00;0.00;;;;;;;16.77;79.83;100552.34;4971673;28;20684;-73
2022/08/23 05:17:47;;;;;;;0.00;0.00;;;;;;;16.79;79.48;100546.50;4971886;28;20233;-74
2022/08/23 05:20:13;;;;;;;0.00;0.00;;;;;;;16.90;79.26;100551.16;4970629;28;20608;-74
2022/08/23 05:22:40;;;;;;;0.00;0.00;;;;;;;17.01;79.16;100559.72;4971937;28;20174;-73
2022/08/23 05:25:06;;;;;;;0.00;0.00;;;;;;;17.11;79.10;100561.19;4971565;28;20193;-72
2022/08/23 05:27:32;;;;;;;0.00;0.00;;;;;;;17.22;78.75;100563.09;4972082;28;20205;-72
2022/08/23 05:29:58;;;;;;;0.00;0.00;;;;;;;17.33;78.51;100565.31;4972505;28;20178;-72
2022/08/23 05:32:23;;;;;;;0.00;0.00;;;;;;;17.40;78.35;100565.53;4971824;28;20177;-72
2022/08/23 05:34:48;;;;;;;0.00;0.00;;;;;;;17.51;78.23;100563.84;4970282;28;20209;-73
2022/08/23 05:37:15;;;;;;;0.00;0.00;;;;;;;17.64;77.89;100568.09;4971783;28;20269;-72
2022/08/23 05:39:41;;;;;;;0.00;0.00;;;;;;;17.76;76.99;100564.50;4972400;28;20178;-72
2022/08/23 05:42:10;;;;;;;0.00;0.00;;;;;;;17.86;76.95;100566.72;4970767;28;20659;-73
2022/08/23 05:44:36;;;;;;;0.00;0.00;;;;;;;18.07;76.65;100571.97;4971824;28;20197;-72
2022/08/23 05:47:07;;;;;;;0.20;0.20;;;;;;;18.24;75.41;100565.25;4972062;28;20221;-72
2022/08/23 05:49:35;;;;;;;0.00;0.00;;;;;;;18.40;74.35;100571.56;4971722;28;20178;-72
2022/08/23 05:52:02;;;;;;;0.00;0.00;;;;;;;18.51;73.22;100575.34;4971659;28;20177;-72
2022/08/23 05:54:28;;;;;;;0.40;0.33;;;;;;;18.62;72.28;100575.59;4971028;28;20348;-72
2022/08/23 05:56:53;;;;;;;0.00;0.00;;;;;;;18.72;71.31;100577.81;4971611;28;20276;-72
2022/08/23 05:59:19;;;;;;;3.10;0.87;;;;;;;18.78;71.13;100573.59;4971523;28;20186;-73
2022/08/23 06:01:44;;;;;;;0.00;0.00;;;;;;;18.89;70.90;100587.66;4971495;28;20200;-72
2022/08/23 06:04:11;;;;;;;0.33;0.33;;;;;;;19.03;70.18;100585.97;4973630;28;20177;-72
2022/08/23 06:06:39;;;;;;;0.00;0.00;;;;;;;19.14;69.97;100590.94;4975350;28;20257;-73
2022/08/23 06:09:06;;;;;;;0.00;0.00;;;;;;;19.24;69.50;100590.31;4975425;28;20181;-74
2022/08/23 06:11:31;;;;;;;0.00;0.00;;;;;;;19.35;68.77;100593.31;4975229;28;20324;-74
2022/08/23 06:13:59;;;;;;;0.00;0.00;;;;;;;19.48;68.43;100592.78;4974517;28;20278;-74
2022/08/23 06:16:31;;;;;;;0.00;0.00;;;;;;;19.67;67.71;100585.59;4982325;28;20432;-74
2022/08/23 06:18:57;;;;;;;0.00;0.00;;;;;;;19.83;66.58;100594.63;4994859;28;20539;-74
2022/08/23 06:21:24;;;;;;;0.10;0.10;;;;;;;20.01;66.05;100590.16;4994676;28;20197;-73
2022/08/23 06:23:50;;;;;;;0.07;0.07;;;;;;;20.17;65.38;100604.69;4994197;28;20177;-73
2022/08/23 06:26:23;;;;;;;0.00;0.00;;;;;;;20.35;64.69;100604.16;4994520;28;20610;-73
2022/08/23 06:28:51;;;;;;;0.30;0.30;;;;;;;20.51;64.09;100596.50;4994448;28;20257;-73
2022/08/23 06:31:44;;;;;;;0.27;0.27;;;;;;;20.64;62.84;100599.84;4994225;28;20293;-73
2022/08/23 06:34:04;;;;;;;0.10;0.10;;;;;;;20.74;62.65;100605.56;4994033;28;20219;-73
2022/08/23 06:36:29;;;;;;;0.07;0.07;;;;;;;20.85;61.81;100600.16;4994487;28;20836;-73
2022/08/23 06:38:55;;;;;;;0.63;0.40;;;;;;;20.95;61.21;100607.78;4994271;28;20631;-73
2022/08/23 06:41:20;;;;;;;0.00;0.00;;;;;;;21.02;60.52;100616.22;4994190;28;20176;-73
2022/08/23 06:43:45;;;;;;;0.00;0.00;;;;;;;21.16;60.50;100615.59;4991226;28;20224;-73
2022/08/23 06:46:15;;;;;;;0.00;0.00;;;;;;;21.22;60.14;100611.28;4972499;28;20193;-73
2022/08/23 06:48:43;;;;;;;0.00;0.00;;;;;;;21.22;59.39;100619.63;4974694;28;20325;-73
2022/08/23 06:51:10;;;;;;;0.00;0.00;;;;;;;21.22;59.09;100618.84;4974466;28;20192;-74
2022/08/23 06:53:35;;;;;;;0.00;0.00;;;;;;;21.17;59.79;100616.41;4991776;28;20199;-73
2022/08/23 06:56:01;;;;;;;0.33;0.33;;;;;;;21.08;59.47;100620.25;4993747;28;20243;-75
2022/08/23 06:58:26;;;;;;;0.20;0.20;;;;;;;21.09;59.53;100609.94;4993773;28;20179;-75
2022/08/23 07:00:52;;;;;;;0.10;0.10;;;;;;;21.09;59.58;100609.94;4993312;28;20191;-74
2022/08/23 07:03:17;;;;;;;0.00;0.00;;;;;;;21.12;59.75;100619.50;4993913;28;20210;-74
2022/08/23 07:05:42;;;;;;;0.00;0.00;;;;;;;21.19;60.00;100614.84;4976872;28;20177;-74
2022/08/23 07:08:08;;;;;;;0.20;0.20;;;;;;;21.21;59.60;100618.03;4974264;28;20656;-73
2022/08/23 07:10:33;;;;;;;0.93;0.93;;;;;;;21.27;58.98;100608.22;4974243;28;20188;-75
2022/08/23 07:12:59;;;;;;;0.00;0.00;;;;;;;21.28;59.20;100615.38;4974214;28;20236;-73
2022/08/23 07:15:24;;;;;;;0.03;0.03;;;;;;;21.35;58.70;100606.31;4973146;28;20648;-73
2022/08/23 07:17:49;;;;;;;0.00;0.00;;;;;;;21.31;59.05;100605.47;4974179;28;20180;-73
2022/08/23 07:20:15;;;;;;;0.00;0.00;;;;;;;21.26;59.64;100603.03;4974187;28;20170;-73
2022/08/23 07:22:40;;;;;;;0.00;0.00;;;;;;;21.36;59.48;100608.72;4974315;28;20174;-74
2022/08/23 07:25:06;;;;;;;0.00;0.00;;;;;;;21.43;59.27;100612.75;4973618;28;20178;-74
2022/08/23 07:27:31;;;;;;;0.33;0.33;;;;;;;21.48;58.54;100621.56;4973937;28;20655;-73
2022/08/23 07:29:56;;;;;;;0.00;0.00;;;;;;;21.60;58.50;100612.16;4973790;28;20237;-74
2022/08/23 07:32:21;;;;;;;0.50;0.50;;;;;;;21.77;58.81;100614.28;4973881;28;20186;-74
2022/08/23 07:34:47;;;;;;;0.23;0.23;;;;;;;21.87;57.77;100616.38;4973567;28;20245;-74
2022/08/23 07:37:13;;;;;;;0.00;0.00;;;;;;;21.94;58.02;100623.97;4973812;28;20245;-76
2022/08/23 07:39:38;;;;;;;0.00;0.00;;;;;;;22.07;57.36;100610.59;4973849;28;20170;-76
2022/08/23 07:42:04;;;;;;;0.00;0.00;;;;;;;22.21;57.90;100611.50;4989430;28;20188;-75
2022/08/23 07:44:29;;;;;;;0.30;0.30;;;;;;;22.20;56.53;100618.25;4992632;28;20173;-74
2022/08/23 07:46:55;;;;;;;0.00;0.00;;;;;;;22.26;56.92;100615.91;4991678;28;20178;-73
2022/08/23 07:49:21;;;;;;;0.00;0.00;;;;;;;22.31;56.26;100623.91;4993019;28;20183;-73
2022/08/23 07:51:48;;;;;;;0.10;0.10;;;;;;;22.46;56.88;100620.03;4992885;28;20584;-73
2022/08/23 07:54:15;;;;;;;0.30;0.10;;;;;;;22.55;55.45;100628.03;4992414;28;20232;-73
2022/08/23 07:56:40;;;;;;;0.00;0.00;;;;;;;22.52;55.32;100621.28;4992856;28;20232;-74
2022/08/23 07:59:06;;;;;;;0.17;0.10;;;;;;;22.66;55.68;100634.47;4992171;28;20607;-73
2022/08/23 08:01:33;;;;;;;0.00;0.00;;;;;;;22.62;54.28;100633.66;4992725;28;20268;-74
2022/08/23 08:04:00;;;;;;;0.00;0.00;;;;;;;22.54;53.75;100637.59;4992418;28;20181;-73
2022/08/23 08:06:30;;;;;;;0.00;0.00;;;;;;;22.47;53.76;100643.13;4992585;28;20691;-73
2022/08/23 08:08:57;;;;;;;0.10;0.10;;;;;;;22.69;53.48;100650.41;4992508;28;20223;-73
2022/08/23 08:11:26;;;;;;;0.00;0.00;;;;;;;22.80;53.34;100642.13;4992558;28;20177;-73
2022/08/23 08:13:53;;;;;;;0.00;0.00;;;;;;;22.80;53.14;100639.34;4992025;28;20209;-73
2022/08/23 08:16:30;;;;;;;0.00;0.00;;;;;;;22.70;53.29;100649.22;4992451;28;20668;-73
2022/08/23 08:18:58;;;;;;;0.10;0.10;;;;;;;22.82;53.85;100648.09;4992368;28;20169;-72
2022/08/23 08:21:23;;;;;;;0.00;0.00;;;;;;;22.86;53.51;100643.41;4992819;28;20660;-73
2022/08/23 08:23:49;;;;;;;0.00;0.00;;;;;;;22.85;52.90;100639.78;4991985;28;20205;-72
2022/08/23 08:26:14;;;;;;;0.00;0.00;;;;;;;22.85;53.26;100639.78;4969496;28;20802;-73
2022/08/23 08:28:40;;;;;;;0.00;0.00;;;;;;;22.99;53.42;100636.28;4972539;28;20190;-73
2022/08/23 08:31:07;;;;;;;0.03;0.03;;;;;;;23.05;52.59;100631.94;4972893;28;20170;-73
2022/08/23 08:33:32;;;;;;;0.00;0.00;;;;;;;23.18;52.94;100635.19;4972159;28;20684;-73
2022/08/23 08:35:58;;;;;;;0.00;0.00;;;;;;;23.12;51.71;100633.94;4972298;28;20174;-73
2022/08/23 08:38:24;;;;;;;0.10;0.10;;;;;;;23.26;52.60;100636.00;4972722;28;20186;-72
2022/08/23 08:41:20;;;;;;;0.10;0.10;;;;;;;23.32;51.49;100637.22;4972152;28;20520;-73
2022/08/23 08:44:19;;;;;;;0.40;0.40;;;;;;;23.08;51.48;100635.94;4972430;28;20181;-72
2022/08/23 08:46:48;;;;;;;0.20;0.20;;;;;;;23.16;51.58;100629.19;4972793;28;20261;-73
2022/08/23 08:49:35;;;;;;;0.97;0.87;;;;;;;23.14;50.99;100634.34;4971958;28;20182;-73
2022/08/23 08:52:24;;;;;;;0.00;0.00;;;;;;;23.20;49.98;100634.78;4972330;28;20645;-73
2022/08/23 08:54:58;;;;;;;0.00;0.00;;;;;;;23.18;50.44;100635.19;4971719;28;20214;-72
2022/08/23 08:57:24;;;;;;;0.00;0.00;;;;;;;23.25;50.59;100637.19;4972284;28;20229;-74
2022/08/23 09:00:03;;;;;;;0.00;0.00;;;;;;;23.23;50.49;100640.38;4972119;28;20178;-72
2022/08/23 09:02:34;;;;;;;0.13;0.13;;;;;;;23.43;50.89;100638.84;4972412;28;20178;-73
2022/08/23 09:05:11;;;;;;;0.30;0.30;;;;;;;23.43;49.94;100635.25;4971445;28;20536;-72
2022/08/23 09:07:46;;;;;;;1.40;0.73;;;;;;;23.39;49.35;100631.66;4972411;28;20261;-73
2022/08/23 09:10:17;;;;;;;0.00;0.00;;;;;;;23.58;49.87;100630.53;4971890;28;20177;-73
2022/08/23 09:13:36;;;;;;;0.00;0.00;;;;;;;23.51;49.91;100630.50;4970782;28;20180;-73
2022/08/23 09:16:20;;;;;;;0.00;0.00;;;;;;;23.56;49.59;100630.09;4971944;28;20176;-73
2022/08/23 09:18:47;;;;;;;0.00;0.00;;;;;;;23.73;49.23;100627.38;4970663;28;20178;-73
2022/08/23 09:21:14;;;;;;;0.00;0.00;;;;;;;23.79;49.82;100615.81;4971886;28;20236;-76
2022/08/23 09:23:45;;;;;;;0.00;0.00;;;;;;;23.92;48.96;100626.22;4971716;28;20362;-72
2022/08/23 09:26:29;;;;;;;0.00;0.00;;;;;;;23.92;49.10;100619.81;4970471;28;20182;-72
2022/08/23 09:28:59;;;;;;;0.23;0.23;;;;;;;23.88;50.03;100619.84;4970298;28;20645;-75
2022/08/23 09:31:46;;;;;;;0.20;0.20;;;;;;;24.02;50.02;100621.84;4964441;28;20177;-74
2022/08/23 09:34:41;;;;;;;0.00;0.00;;;;;;;24.01;48.92;100618.25;4971364;28;20602;-74
2022/08/23 09:37:15;;;;;;;0.23;0.23;;;;;;;23.91;48.81;100612.66;4969996;28;20202;-74
2022/08/23 09:39:46;;;;;;;0.00;0.00;;;;;;;24.01;48.81;100609.03;4971531;28;20189;-74
2022/08/23 09:42:36;;;;;;;0.10;0.10;;;;;;;24.22;49.17;100614.63;4971674;28;20225;-73
2022/08/23 09:45:22;;;;;;;0.00;0.00;;;;;;;24.27;47.47;100611.44;4971335;28;20185;-73
2022/08/23 09:47:48;;;;;;;0.10;0.10;;;;;;;24.38;47.36;100622.63;4971644;28;20181;-73
2022/08/23 09:50:40;;;;;;;0.27;0.20;;;;;;;24.21;47.36;100615.84;4971593;28;20184;-72
2022/08/23 09:53:09;;;;;;;0.00;0.00;;;;;;;24.24;47.34;100615.03;4971331;28;20536;-72
2022/08/23 09:55:41;;;;;;;0.00;0.00;;;;;;;24.57;47.83;100611.00;4970739;28;20214;-72
2022/08/23 09:58:30;;;;;;;0.20;0.20;;;;;;;24.81;46.80;100617.75;4971525;28;20181;-72
2022/08/23 10:01:17;;;;;;;0.07;0.07;;;;;;;24.99;46.33;100611.28;4971337;28;20185;-73
2022/08/23 10:03:43;;;;;;;0.00;0.00;;;;;;;25.08;46.33;100606.88;4970400;28;20188;-74
2022/08/23 10:06:11;;;;;;;0.00;0.00;;;;;;;25.07;45.66;100598.91;4970727;28;20186;-72
2022/08/23 10:08:50;;;;;;;0.23;0.23;;;;;;;25.14;44.86;100604.44;4970071;28;20178;-72
2022/08/23 10:11:29;;;;;;;0.10;0.10;;;;;;;25.00;44.74;100607.28;4971103;28;20193;-73
2022/08/23 10:13:55;;;;;;;0.00;0.00;;;;;;;25.17;45.70;100598.84;4970641;28;20272;-75
2022/08/23 10:16:35;;;;;;;0.53;0.53;;;;;;;25.25;45.07;100598.81;4970722;28;20178;-75
2022/08/23 10:19:33;;;;;;;0.00;0.00;;;;;;;25.28;45.36;100595.19;4971369;28;20169;-76
2022/08/23 10:22:21;;;;;;;0.00;0.00;;;;;;;25.68;43.37;100599.34;4971262;28;20178;-76
2022/08/23 10:25:11;;;;;;;0.30;0.30;;;;;;;25.70;43.07;100599.75;4970718;28;20201;-76
2022/08/23 10:31:00;;;;;;;0.00;0.00;;;;;;;25.61;42.64;100597.41;4971314;28;20252;-73
2022/08/23 10:34:09;;;;;;;0.10;0.10;;;;;;;25.70;42.05;100599.75;4966470;28;20190;-73
2022/08/23 10:36:55;;;;;;;0.00;0.00;;;;;;;25.79;41.07;100589.69;4943013;28;20197;-76
2022/08/23 10:39:29;;;;;;;0.00;0.00;;;;;;;26.06;41.10;100597.47;4964891;28;20175;-76
2022/08/23 10:42:00;;;;;;;0.00;0.00;;;;;;;26.01;41.20;100595.09;4967760;28;20173;-75
2022/08/23 10:44:46;;;;;;;0.00;0.00;;;;;;;26.35;40.10;100607.25;4969337;28;20178;-76
2022/08/23 10:47:26;;;;;;;0.00;0.00;;;;;;;26.36;39.78;100591.22;4970893;28;20267;-75
2022/08/23 10:49:52;;;;;;;0.00;0.00;;;;;;;26.57;40.01;100607.00;4972796;28;20407;-74
2022/08/23 10:52:25;;;;;;;0.00;0.00;;;;;;;26.22;41.70;100580.13;4974548;28;20178;-73
2022/08/23 10:55:15;;;;;;;0.00;0.00;;;;;;;25.65;40.61;100581.38;4973934;28;20229;-73
2022/08/23 10:57:42;;;;;;;0.70;0.20;;;;;;;25.89;40.40;100582.41;4974312;28;20206;-73
2022/08/23 11:00:16;;;;;;;0.00;0.00;;;;;;;26.03;40.28;100576.69;4974469;28;20534;-73
2022/08/23 11:02:54;;;;;;;0.00;0.00;;;;;;;25.97;39.84;100577.53;4974525;28;20219;-73
2022/08/23 11:05:30;;;;;;;0.30;0.30;;;;;;;25.94;38.91;100578.38;4973108;28;20186;-73
2022/08/23 11:08:08;;;;;;;0.00;0.00;;;;;;;26.10;39.46;100582.22;4969959;28;20257;-73
2022/08/23 11:10:36;;;;;;;0.03;0.03;;;;;;;26.14;39.18;100578.59;4966782;28;20605;-74
2022/08/23 11:13:14;;;;;;;0.10;0.10;;;;;;;26.16;38.77;100578.97;4974042;28;20170;-74
2022/08/23 11:15:59;;;;;;;0.10;0.10;;;;;;;25.97;39.13;100575.53;4973960;28;20186;-74
2022/08/23 11:18:25;;;;;;;0.10;0.03;;;;;;;26.09;39.43;100580.63;4974040;28;20260;-73
2022/08/23 11:20:51;;;;;;;0.00;0.00;;;;;;;26.16;39.03;100570.56;4973948;28;20205;-73
2022/08/23 11:23:35;;;;;;;23.47;2.30;;;;;;;26.46;40.03;100562.28;4973803;28;20592;-73
2022/08/23 11:26:02;;;;;;;0.20;0.20;;;;;;;26.66;39.25;100566.06;4973188;28;20182;-73
2022/08/23 11:28:27;;;;;;;0.10;0.10;;;;;;;26.36;38.69;100561.19;4973643;28;20193;-73
2022/08/23 11:30:56;;;;;;;0.10;0.10;;;;;;;26.46;38.72;100567.88;4973747;28;20526;-73
2022/08/23 11:33:40;;;;;;;0.00;0.00;;;;;;;26.45;38.99;100566.28;4972033;28;20209;-76
2022/08/23 11:36:08;;;;;;;0.10;0.10;;;;;;;26.47;39.39;100560.25;4970293;28;20195;-75
2022/08/23 11:38:42;;;;;;;0.00;0.00;;;;;;;26.34;38.69;100571.22;4963012;28;20536;-76
2022/08/23 11:41:18;;;;;;;0.30;0.30;;;;;;;26.72;37.99;100560.00;4954717;28;20574;-75
2022/08/23 11:43:46;;;;;;;0.10;0.10;;;;;;;26.65;37.69;100549.66;4954195;28;20198;-73
2022/08/23 11:46:25;;;;;;;0.00;0.00;;;;;;;26.68;37.96;100555.22;4957682;28;20210;-73
2022/08/23 11:49:10;;;;;;;0.00;0.00;;;;;;;26.85;38.12;100559.00;4977241;28;20550;-73